Aviation Digital Data Service (ADDS)

Output produced by METARs form (1856 UTC 29 May 2017)
found at http://www.aviationweather.gov/adds/metars/
 
KDOV 291843Z AUTO 10007KT 6SM BR OVC007 17/17 A2998 RMK AO2 SLP155 $
TAF AMD KDOV 291826Z 2918/3022 10009KT 6000 -DZ BR OVC007 QNH2997INS 
     BECMG 2919/2920 10009KT 9999 NSW OVC010 QNH2998INS 
     BECMG 3000/3001 10009KT 4800 BR OVC004 QNH2999INS 
     BECMG 3012/3013 12009KT 9999 NSW OVC007 QNH3002INS TX22/2919Z TN14/3010Z